createdAt,value
2018-04-22T00:00:14.204Z,11.73
2018-04-22T00:02:42.482Z,12.87
2018-04-22T00:05:13.061Z,11.83
2018-04-22T00:07:42.652Z,11.70
2018-04-22T00:10:10.764Z,14.30
2018-04-22T00:12:40.203Z,12.23
2018-04-22T00:15:08.441Z,12.10
2018-04-22T00:17:36.684Z,12.97
2018-04-22T00:20:04.997Z,11.07
2018-04-22T00:22:34.735Z,14.60
2018-04-22T00:25:03.754Z,10.57
2018-04-22T00:27:32.797Z,12.50
2018-04-22T00:30:01.036Z,12.03
2018-04-22T00:32:29.278Z,14.70
2018-04-22T00:34:58.896Z,11.53
2018-04-22T00:37:27.413Z,11.60
2018-04-22T00:39:55.701Z,11.67
2018-04-22T00:42:25.226Z,12.57
2018-04-22T00:44:53.444Z,12.00
2018-04-22T00:47:21.714Z,10.77
2018-04-22T00:49:49.976Z,12.93
2018-04-22T00:52:18.219Z,12.17
2018-04-22T00:54:46.499Z,11.73
2018-04-22T00:57:16.125Z,12.80
2018-04-22T00:59:44.267Z,13.50
2018-04-22T01:02:12.508Z,13.70
2018-04-22T01:04:41.936Z,16.80
2018-04-22T01:07:10.581Z,14.30
2018-04-22T01:09:38.819Z,12.13
2018-04-22T01:12:08.450Z,14.47
2018-04-22T01:14:36.954Z,13.03
2018-04-22T01:17:05.209Z,13.50
2018-04-22T01:19:34.727Z,15.00
2018-04-22T01:22:03.363Z,14.20
2018-04-22T01:24:31.604Z,13.70
2018-04-22T01:27:00.768Z,13.63
2018-04-22T01:29:29.760Z,16.00
2018-04-22T01:31:58.387Z,13.30
2018-04-22T01:34:28.015Z,15.30
2018-04-22T01:36:56.135Z,13.97
2018-04-22T01:39:24.375Z,12.97
2018-04-22T01:41:53.420Z,13.50
2018-04-22T01:44:22.429Z,13.30
2018-04-22T01:46:51.446Z,16.90
2018-04-22T01:49:21.601Z,12.70
2018-04-22T01:51:50.601Z,13.53
2018-04-22T01:54:18.876Z,13.40
2018-04-22T01:56:47.151Z,12.50
2018-04-22T01:59:15.389Z,14.30
2018-04-22T02:01:44.124Z,15.03
2018-04-22T02:04:13.507Z,14.53
2018-04-22T02:06:43.257Z,13.70
2018-04-22T02:09:11.528Z,13.97
2018-04-22T02:11:40.304Z,13.43
2018-04-22T02:14:08.539Z,13.67
2018-04-22T02:16:37.584Z,14.60
2018-04-22T02:19:05.823Z,18.13
2018-04-22T02:21:34.102Z,14.07
2018-04-22T02:24:02.348Z,14.63
2018-04-22T02:26:32.091Z,12.90
2018-04-22T02:29:00.533Z,13.33
2018-04-22T02:31:28.780Z,14.07
2018-04-22T02:33:58.533Z,15.17
2018-04-22T02:36:26.827Z,13.03
2018-04-22T02:38:56.590Z,13.80
2018-04-22T02:41:24.828Z,13.93
2018-04-22T02:43:53.128Z,16.13
2018-04-22T02:46:22.719Z,13.43
2018-04-22T02:48:51.233Z,13.37
2018-04-22T02:51:19.505Z,13.70
2018-04-22T02:53:49.608Z,14.13
2018-04-22T02:56:17.923Z,15.10
2018-04-22T02:58:46.176Z,14.90
2018-04-22T03:01:14.429Z,14.33
2018-04-22T03:03:42.736Z,13.73
2018-04-22T03:06:12.075Z,14.20
2018-04-22T03:08:41.084Z,12.90
2018-04-22T03:11:10.532Z,14.40
2018-04-22T03:13:38.778Z,13.43
2018-04-22T03:16:08.481Z,15.47
2018-04-22T03:18:38.104Z,14.37
2018-04-22T03:21:06.615Z,14.30
2018-04-22T03:23:34.855Z,14.03
2018-04-22T03:26:04.036Z,15.40
2018-04-22T03:28:33.049Z,14.17
2018-04-22T03:31:02.064Z,14.03
2018-04-22T03:33:31.112Z,14.60
2018-04-22T03:35:59.355Z,15.93
2018-04-22T03:38:27.605Z,14.67
2018-04-22T03:40:55.887Z,13.90
2018-04-22T03:43:24.124Z,13.20
2018-04-22T03:45:53.876Z,14.40
2018-04-22T03:48:22.151Z,15.80
2018-04-22T03:50:50.396Z,13.37
2018-04-22T03:53:19.199Z,13.80
2018-04-22T03:55:48.233Z,13.73
2018-04-22T03:58:16.484Z,13.87
2018-04-22T04:00:44.765Z,15.73
2018-04-22T04:03:14.499Z,16.00
2018-04-22T04:05:43.583Z,18.70
2018-04-22T04:08:12.597Z,16.10
2018-04-22T04:10:40.840Z,14.20
2018-04-22T04:13:09.863Z,15.57
2018-04-22T04:15:39.455Z,14.90
2018-04-22T04:21:27.497Z,15.13
2018-04-22T04:27:22.252Z,15.87
2018-04-22T04:29:51.871Z,14.53
2018-04-22T04:32:19.982Z,16.60
2018-04-22T04:34:48.483Z,19.90
2018-04-22T04:37:16.746Z,15.43
2018-04-22T04:39:44.984Z,18.43
2018-04-22T04:42:13.247Z,16.53
2018-04-22T04:44:42.251Z,16.27
2018-04-22T04:47:11.259Z,16.00
2018-04-22T04:49:40.855Z,16.03
2018-04-22T04:52:09.685Z,15.63
2018-04-22T04:54:38.317Z,15.47
2018-04-22T04:57:06.998Z,17.07
2018-04-22T04:59:35.244Z,16.50
2018-04-22T05:02:04.992Z,17.17
2018-04-22T05:04:34.611Z,15.40
2018-04-22T05:07:03.511Z,16.50
2018-04-22T05:09:31.765Z,17.70
2018-04-22T05:12:00.068Z,18.97
2018-04-22T05:17:21.010Z,18.13
2018-04-22T05:19:50.603Z,18.83
2018-04-22T05:22:18.707Z,18.30
2018-04-22T05:24:47.223Z,19.23
2018-04-22T05:27:16.962Z,20.17
2018-04-22T05:29:45.203Z,18.70
2018-04-22T05:32:13.491Z,18.50
2018-04-22T05:34:43.074Z,19.70
2018-04-22T05:37:11.188Z,20.67
2018-04-22T05:39:39.465Z,20.27
2018-04-22T05:42:07.698Z,19.03
2018-04-22T05:44:35.999Z,19.83
2018-04-22T05:47:05.427Z,19.77
2018-04-22T05:49:33.667Z,20.13
2018-04-22T05:52:02.263Z,19.70
2018-04-22T05:54:30.504Z,19.30
2018-04-22T05:57:00.090Z,21.57
2018-04-22T05:59:28.247Z,20.80
2018-04-22T06:01:56.486Z,20.37
2018-04-22T06:04:25.859Z,20.47
2018-04-22T06:06:55.487Z,19.23
2018-04-22T06:09:24.392Z,21.67
2018-04-22T06:11:52.631Z,21.83
2018-04-22T06:14:20.934Z,25.77
2018-04-22T06:16:49.171Z,27.80
2018-04-22T06:19:18.755Z,34.87
2018-04-22T06:21:46.910Z,29.23
2018-04-22T06:24:15.151Z,30.50
2018-04-22T06:26:44.734Z,26.27
2018-04-22T06:29:13.287Z,25.40
2018-04-22T06:31:41.519Z,39.30
2018-04-22T06:34:09.754Z,41.10
2018-04-22T06:36:38.042Z,43.33
2018-04-22T06:39:07.416Z,40.87
2018-04-22T06:41:35.660Z,34.13
2018-04-22T06:44:03.962Z,34.97
2018-04-22T06:46:32.194Z,30.63
2018-04-22T06:49:00.439Z,36.13
2018-04-22T06:51:28.730Z,26.10
2018-04-22T06:53:58.316Z,24.33
2018-04-22T06:56:26.431Z,24.83
2018-04-22T06:58:55.114Z,22.10
2018-04-22T07:01:24.487Z,27.90
2018-04-22T07:03:52.722Z,25.30
2018-04-22T07:06:21.005Z,22.83
2018-04-22T07:08:49.238Z,24.77
2018-04-22T07:11:18.985Z,23.07
2018-04-22T07:13:48.018Z,22.43
2018-04-22T07:16:17.394Z,23.50
2018-04-22T07:18:45.666Z,22.70
2018-04-22T07:21:13.943Z,22.83
2018-04-22T07:23:42.183Z,23.83
2018-04-22T07:26:10.467Z,24.63
2018-04-22T07:28:38.705Z,23.50
2018-04-22T07:31:08.446Z,21.77
2018-04-22T07:33:36.740Z,22.80
2018-04-22T07:36:04.985Z,25.13
2018-04-22T07:38:34.346Z,25.50
2018-04-22T07:41:02.634Z,23.63
2018-04-22T07:43:30.867Z,27.93
2018-04-22T07:45:59.501Z,24.00
2018-04-22T07:48:27.793Z,25.43
2018-04-22T07:50:57.535Z,24.83
2018-04-22T07:53:25.842Z,27.90
2018-04-22T07:55:54.084Z,24.20
2018-04-22T07:58:23.335Z,27.30
2018-04-22T08:00:51.563Z,23.30
2018-04-22T08:03:19.875Z,24.10
2018-04-22T08:05:49.247Z,26.30
2018-04-22T08:08:17.891Z,22.63
2018-04-22T08:10:46.175Z,23.07
2018-04-22T08:13:14.411Z,23.37
2018-04-22T08:15:43.787Z,21.77
2018-04-22T08:18:12.074Z,23.70
2018-04-22T08:20:40.707Z,22.50
2018-04-22T08:23:10.298Z,23.03
2018-04-22T08:25:38.458Z,22.23
2018-04-22T08:28:06.688Z,21.40
2018-04-22T08:30:36.435Z,22.47
2018-04-22T08:33:05.494Z,20.77
2018-04-22T08:35:33.730Z,20.77
2018-04-22T08:38:01.977Z,19.33
2018-04-22T08:40:31.024Z,22.00
2018-04-22T08:42:59.262Z,21.80
2018-04-22T08:45:27.894Z,21.47
2018-04-22T08:47:57.529Z,22.20
2018-04-22T08:50:25.643Z,22.37
2018-04-22T08:52:53.878Z,20.70
2018-04-22T08:55:22.550Z,20.53
2018-04-22T08:57:51.927Z,19.60
2018-04-22T09:00:20.171Z,18.50
2018-04-22T09:02:48.439Z,18.80
2018-04-22T09:05:16.678Z,18.67
2018-04-22T09:07:44.967Z,19.10
2018-04-22T09:10:14.549Z,17.83
2018-04-22T09:12:42.695Z,17.07
2018-04-22T09:15:11.766Z,16.37
2018-04-22T09:17:40.771Z,16.97
2018-04-22T09:20:10.354Z,16.67
2018-04-22T09:22:39.854Z,15.90
2018-04-22T09:25:09.481Z,17.73
2018-04-22T09:27:37.715Z,17.47
2018-04-22T09:30:07.169Z,16.13
2018-04-22T09:32:36.758Z,15.30
2018-04-22T09:35:05.644Z,16.17
2018-04-22T09:37:33.924Z,15.20
2018-04-22T09:40:02.164Z,14.97
2018-04-22T09:42:30.404Z,17.37
2018-04-22T09:44:59.895Z,17.63
2018-04-22T09:47:28.135Z,16.20
2018-04-22T09:49:57.157Z,17.70
2018-04-22T09:52:26.187Z,16.30
2018-04-22T09:54:54.829Z,17.93
2018-04-22T09:57:23.054Z,15.73
2018-04-22T09:59:51.339Z,15.83
2018-04-22T10:02:25.315Z,17.90
2018-04-22T10:04:55.127Z,18.23
2018-04-22T10:07:23.343Z,18.70
2018-04-22T10:09:51.579Z,19.90
2018-04-22T10:12:19.888Z,13.90
2018-04-22T10:14:48.160Z,19.07
2018-04-22T10:17:17.534Z,19.67
2018-04-22T10:19:45.832Z,19.33
2018-04-22T10:22:14.071Z,19.20
2018-04-22T10:24:42.310Z,17.30
2018-04-22T10:27:11.958Z,17.63
2018-04-22T10:29:40.463Z,14.77
2018-04-22T10:32:08.707Z,16.33
2018-04-22T10:34:37.014Z,16.83
2018-04-22T10:37:06.587Z,14.90
2018-04-22T10:39:36.207Z,15.43
2018-04-22T10:42:04.896Z,14.50
2018-04-22T10:44:33.128Z,16.83
2018-04-22T10:47:02.710Z,15.13
2018-04-22T10:49:30.900Z,14.03
2018-04-22T10:51:59.540Z,13.50
2018-04-22T10:54:27.787Z,14.03
2018-04-22T10:56:56.067Z,13.60
2018-04-22T10:59:25.438Z,14.20
2018-04-22T11:01:53.731Z,11.90
2018-04-22T11:04:22.006Z,12.83
2018-04-22T11:06:50.243Z,12.60
2018-04-22T11:09:18.484Z,11.33
2018-04-22T11:11:47.908Z,10.97
2018-04-22T11:14:17.539Z,10.63
2018-04-22T11:16:46.011Z,12.60
2018-04-22T11:19:14.297Z,12.43
2018-04-22T11:21:42.527Z,10.43
2018-04-22T11:24:10.762Z,11.53
2018-04-22T11:26:40.563Z,11.10
2018-04-22T11:29:08.806Z,11.80
2018-04-22T11:31:38.541Z,12.53
2018-04-22T11:34:07.967Z,12.20
2018-04-22T11:36:36.967Z,10.97
2018-04-22T11:39:06.116Z,11.87
2018-04-22T11:41:35.154Z,9.80
2018-04-22T11:44:03.395Z,11.47
2018-04-22T11:46:32.017Z,11.00
2018-04-22T11:49:00.293Z,9.73
2018-04-22T11:51:29.659Z,14.73
2018-04-22T11:53:58.655Z,10.80
2018-04-22T11:56:26.933Z,10.23
2018-04-22T11:58:55.928Z,8.73
2018-04-22T12:01:25.511Z,12.13
2018-04-22T12:03:54.791Z,10.50
2018-04-22T12:06:23.014Z,11.53
2018-04-22T12:08:51.245Z,9.27
2018-04-22T12:11:24.222Z,12.27
2018-04-22T12:13:52.722Z,9.27
2018-04-22T12:16:20.954Z,10.70
2018-04-22T12:18:49.255Z,10.13
2018-04-22T12:21:17.483Z,10.03
2018-04-22T12:23:46.847Z,10.43
2018-04-22T12:26:15.138Z,10.50
2018-04-22T12:28:43.364Z,11.10
2018-04-22T12:31:12.355Z,10.47
2018-04-22T12:33:41.398Z,10.17
2018-04-22T12:36:09.639Z,9.57
2018-04-22T12:38:37.859Z,9.97
2018-04-22T12:41:06.562Z,9.60
2018-04-22T12:43:36.135Z,9.87
2018-04-22T12:46:04.233Z,8.57
2018-04-22T12:48:33.850Z,9.07
2018-04-22T12:51:02.347Z,11.40
2018-04-22T12:53:31.342Z,9.87
2018-04-22T12:56:01.134Z,10.00
2018-04-22T12:58:29.363Z,8.80
2018-04-22T13:00:57.604Z,9.43
2018-04-22T13:03:27.137Z,8.73
2018-04-22T13:05:56.911Z,8.80
2018-04-22T13:08:25.876Z,11.70
2018-04-22T13:10:54.921Z,7.90
2018-04-22T13:13:23.147Z,8.47
2018-04-22T13:15:52.727Z,8.83
2018-04-22T13:18:22.222Z,8.53
2018-04-22T13:20:51.834Z,6.67
2018-04-22T13:23:20.065Z,9.63
2018-04-22T13:25:48.370Z,7.37
2018-04-22T13:28:16.542Z,7.77
2018-04-22T13:30:46.118Z,6.40
2018-04-22T13:33:15.618Z,9.50
2018-04-22T13:35:44.850Z,6.00
2018-04-22T13:38:13.092Z,4.20
2018-04-22T13:40:42.503Z,6.33
2018-04-22T13:43:10.735Z,5.87
2018-04-22T13:45:38.972Z,9.50
2018-04-22T13:48:07.248Z,9.00
2018-04-22T13:50:35.479Z,5.70
2018-04-22T13:53:03.711Z,7.20
2018-04-22T13:55:31.979Z,9.20
2018-04-22T13:58:01.352Z,7.13
2018-04-22T14:00:33.030Z,7.80
2018-04-22T14:03:01.656Z,9.53
2018-04-22T14:05:30.643Z,6.80
2018-04-22T14:08:00.271Z,13.70
2018-04-22T14:10:28.379Z,12.60
2018-04-22T14:12:56.607Z,8.60
2018-04-22T14:15:26.034Z,7.47
2018-04-22T14:17:54.267Z,11.20
2018-04-22T14:20:22.499Z,8.70
2018-04-22T14:22:50.774Z,9.70
2018-04-22T14:25:19.029Z,20.83
2018-04-22T14:27:47.237Z,9.50
2018-04-22T14:30:15.514Z,17.33
2018-04-22T14:32:44.874Z,18.67
2018-04-22T14:35:13.106Z,20.67
2018-04-22T14:37:41.387Z,13.50
2018-04-22T14:40:09.624Z,10.33
2018-04-22T14:42:37.859Z,10.90
2018-04-22T14:45:13.330Z,12.40
2018-04-22T14:47:41.434Z,11.47
2018-04-22T14:50:09.658Z,8.03
2018-04-22T14:52:37.943Z,7.27
2018-04-22T14:55:07.682Z,9.97
2018-04-22T14:57:35.912Z,7.50
2018-04-22T15:00:04.191Z,10.63
2018-04-22T15:02:33.888Z,12.97
2018-04-22T15:05:02.395Z,10.17
2018-04-22T15:07:30.670Z,13.80
2018-04-22T15:10:00.398Z,9.00
2018-04-22T15:12:28.635Z,10.13
2018-04-22T15:14:56.918Z,10.93
2018-04-22T15:17:25.151Z,14.03
2018-04-22T15:19:54.887Z,12.73
2018-04-22T15:22:23.938Z,16.50
2018-04-22T15:24:52.174Z,16.60
2018-04-22T15:27:21.759Z,8.97
2018-04-22T15:29:51.955Z,7.27
2018-04-22T15:32:24.710Z,9.80
2018-04-22T15:34:53.748Z,11.00
2018-04-22T15:37:24.330Z,11.70
2018-04-22T15:39:53.846Z,10.90
2018-04-22T15:42:21.958Z,10.23
2018-04-22T15:44:50.187Z,18.97
2018-04-22T15:47:19.219Z,7.70
2018-04-22T15:49:48.951Z,9.93
2018-04-22T15:52:18.702Z,11.50
2018-04-22T15:54:47.390Z,9.70
2018-04-22T15:57:15.606Z,9.03
2018-04-22T15:59:45.024Z,8.40
2018-04-22T16:02:18.387Z,14.77
2018-04-22T16:04:47.761Z,9.13
2018-04-22T16:07:17.138Z,8.50
2018-04-22T16:09:45.402Z,10.20
2018-04-22T16:12:15.135Z,7.33
2018-04-22T16:14:44.559Z,11.10
2018-04-22T16:17:13.528Z,8.80
2018-04-22T16:19:41.750Z,8.80
2018-04-22T16:22:09.999Z,12.17
2018-04-22T16:24:39.638Z,16.80
2018-04-22T16:27:08.170Z,19.90
2018-04-22T16:29:36.409Z,16.23
2018-04-22T16:32:04.718Z,20.10
2018-04-22T16:34:32.974Z,18.40
2018-04-22T16:37:02.570Z,24.50
2018-04-22T16:39:31.115Z,14.87
2018-04-22T16:41:59.351Z,26.50
2018-04-22T16:44:27.610Z,16.47
2018-04-22T16:46:57.261Z,17.07
2018-04-22T16:49:25.771Z,19.57
2018-04-22T16:51:54.011Z,21.07
2018-04-22T16:54:23.644Z,16.10
2018-04-22T16:56:51.743Z,8.77
2018-04-22T16:59:20.003Z,12.33
2018-04-22T17:01:48.301Z,7.13
2018-04-22T17:04:18.035Z,7.50
2018-04-22T17:06:46.280Z,17.43
2018-04-22T17:09:14.585Z,109.00
2018-04-22T17:11:44.170Z,10.60
2018-04-22T17:14:12.288Z,13.60
2018-04-22T17:16:40.590Z,13.20
2018-04-22T17:19:08.837Z,14.83
2018-04-22T17:21:38.213Z,12.37
2018-04-22T17:24:06.523Z,8.07
2018-04-22T17:26:36.078Z,8.17
2018-04-22T17:29:05.059Z,8.03
2018-04-22T17:31:33.948Z,7.43
2018-04-22T17:34:02.940Z,8.23
2018-04-22T17:36:31.168Z,7.90
2018-04-22T17:38:59.439Z,8.50
2018-04-22T17:41:27.672Z,8.73
2018-04-22T17:43:55.931Z,7.47
2018-04-22T17:46:24.562Z,8.83
2018-04-22T17:48:53.551Z,6.97
2018-04-22T17:51:21.783Z,11.40
2018-04-22T17:53:50.854Z,7.20
2018-04-22T17:56:19.871Z,11.10
2018-04-22T17:58:49.443Z,10.57
2018-04-22T18:01:19.112Z,4.87
2018-04-22T18:03:48.687Z,7.23
2018-04-22T18:06:16.791Z,8.10
2018-04-22T18:08:45.072Z,8.00
2018-04-22T18:11:13.299Z,6.57
2018-04-22T18:13:41.527Z,6.60
2018-04-22T18:16:10.931Z,8.77
2018-04-22T18:18:39.160Z,14.13
2018-04-22T18:21:07.400Z,7.90
2018-04-22T18:23:35.670Z,6.40
2018-04-22T18:26:03.914Z,5.00
2018-04-22T18:28:32.131Z,5.90
2018-04-22T18:31:00.399Z,7.50
2018-04-22T18:33:28.631Z,9.30
2018-04-22T18:35:57.641Z,11.17
2018-04-22T18:38:25.919Z,9.17
2018-04-22T18:40:54.151Z,14.50
2018-04-22T18:43:22.390Z,7.73
2018-04-22T18:45:50.672Z,9.27
2018-04-22T18:48:20.402Z,9.67
2018-04-22T18:50:49.427Z,11.03
2018-04-22T18:53:18.467Z,9.50
2018-04-22T18:55:46.704Z,7.33
2018-04-22T18:58:14.926Z,6.80
2018-04-22T19:00:43.199Z,8.10
2018-04-22T19:03:11.450Z,6.30
2018-04-22T19:05:41.185Z,7.07
2018-04-22T19:08:10.227Z,11.13
2018-04-22T19:10:39.223Z,10.40
2018-04-22T19:13:08.223Z,6.60
2018-04-22T19:15:36.495Z,6.60
2018-04-22T19:18:06.374Z,6.70
2018-04-22T19:20:34.475Z,6.67
2018-04-22T19:23:02.755Z,7.67
2018-04-22T19:25:32.102Z,9.83
2018-04-22T19:28:00.362Z,8.60
2018-04-22T19:30:28.599Z,6.83
2018-04-22T19:32:56.835Z,14.90
2018-04-22T19:35:26.639Z,6.43
2018-04-22T19:37:54.871Z,10.13
2018-04-22T19:40:23.125Z,10.63
2018-04-22T19:42:51.410Z,7.23
2018-04-22T19:45:19.643Z,7.53
2018-04-22T19:47:47.873Z,7.20
2018-04-22T19:50:16.163Z,8.80
2018-04-22T19:52:45.182Z,7.47
2018-04-22T19:55:14.194Z,7.47
2018-04-22T19:57:43.622Z,9.43
2018-04-22T20:00:11.851Z,7.10
2018-04-22T20:02:40.091Z,9.13
2018-04-22T20:05:08.408Z,7.57
2018-04-22T20:07:37.771Z,11.63
2018-04-22T20:10:06.012Z,9.40
2018-04-22T20:12:34.294Z,7.50
2018-04-22T20:15:02.539Z,8.50
2018-04-22T20:17:30.768Z,6.87
2018-04-22T20:20:00.543Z,7.70
2018-04-22T20:22:28.770Z,9.87
2018-04-22T20:24:57.046Z,8.67
2018-04-22T20:27:26.779Z,11.23
2018-04-22T20:29:55.026Z,10.80
2018-04-22T20:32:23.283Z,10.27
2018-04-22T20:34:51.577Z,9.83
2018-04-22T20:37:19.812Z,11.60
2018-04-22T20:39:48.040Z,10.23
2018-04-22T20:42:17.476Z,9.93
2018-04-22T20:44:46.472Z,10.33
2018-04-22T20:47:15.474Z,13.23
2018-04-22T20:49:43.830Z,12.97
2018-04-22T20:52:12.087Z,14.57
2018-04-22T20:54:40.350Z,14.53
2018-04-22T20:57:08.627Z,15.87
2018-04-22T20:59:36.880Z,16.27
2018-04-22T21:02:05.119Z,12.70
2018-04-22T21:04:35.034Z,11.77
2018-04-22T21:07:03.151Z,12.70
2018-04-22T21:09:32.583Z,13.20
2018-04-22T21:12:01.592Z,13.97
2018-04-22T21:14:29.827Z,11.70
2018-04-22T21:16:58.868Z,14.83
2018-04-22T21:19:27.107Z,15.73
2018-04-22T21:21:55.395Z,16.77
2018-04-22T21:24:24.990Z,15.27
2018-04-22T21:26:53.504Z,15.43
2018-04-22T21:29:23.141Z,17.67
2018-04-22T21:31:51.651Z,17.00
2018-04-22T21:34:19.890Z,16.10
2018-04-22T21:36:48.167Z,17.50
2018-04-22T21:39:16.412Z,17.90
2018-04-22T21:41:46.154Z,16.90
2018-04-22T21:44:14.442Z,17.03
2018-04-22T21:46:43.080Z,18.27
2018-04-22T21:49:11.327Z,17.13
2018-04-22T21:51:40.608Z,16.73
2018-04-22T21:54:08.853Z,19.47
2018-04-22T21:56:38.449Z,22.33
2018-04-22T21:59:07.122Z,21.80
2018-04-22T22:01:36.867Z,22.63
2018-04-22T22:04:05.114Z,23.33
2018-04-22T22:06:33.388Z,21.00
2018-04-22T22:09:01.633Z,23.47
2018-04-22T22:11:29.867Z,24.20
2018-04-22T22:13:59.649Z,23.47
2018-04-22T22:16:27.888Z,23.30
2018-04-22T22:18:56.129Z,22.07
2018-04-22T22:21:24.463Z,23.53
2018-04-22T22:23:52.703Z,24.77
2018-04-22T22:26:20.943Z,22.57
2018-04-22T22:28:49.215Z,24.27
2018-04-22T22:31:18.218Z,25.07
2018-04-22T22:33:47.860Z,23.57
2018-04-22T22:36:17.480Z,24.53
2018-04-22T22:38:47.064Z,25.07
2018-04-22T22:41:15.199Z,26.80
2018-04-22T22:43:43.438Z,26.63
2018-04-22T22:46:12.852Z,25.40
2018-04-22T22:48:41.491Z,26.03
2018-04-22T22:51:09.732Z,24.37
2018-04-22T22:53:37.967Z,27.53
2018-04-22T22:56:06.263Z,23.37
2018-04-22T22:58:34.519Z,24.47
2018-04-22T23:01:03.530Z,26.50
2018-04-22T23:03:31.802Z,27.73
2018-04-22T23:06:00.811Z,26.30
2018-04-22T23:08:29.820Z,27.83
2018-04-22T23:10:58.212Z,28.13
2018-04-22T23:13:26.449Z,29.23
2018-04-22T23:15:56.039Z,30.00
2018-04-22T23:18:25.324Z,28.67
2018-04-22T23:20:54.910Z,29.00
2018-04-22T23:23:23.063Z,28.20
2018-04-22T23:25:51.303Z,30.83
2018-04-22T23:28:19.551Z,28.97
2018-04-22T23:30:49.187Z,29.30
2018-04-22T23:33:18.067Z,27.97
2018-04-22T23:35:47.445Z,28.73
2018-04-22T23:38:15.727Z,29.30
2018-04-22T23:40:43.970Z,26.00
2018-04-22T23:43:12.203Z,34.43
2018-04-22T23:45:40.477Z,36.20
2018-04-22T23:48:08.771Z,39.10
2018-04-22T23:50:38.123Z,40.23
2018-04-22T23:53:06.363Z,43.57
2018-04-22T23:55:34.639Z,48.07
2018-04-22T23:58:02.878Z,47.53
